sensor_id;sensor_type;location;lat;lon;timestamp;P1;durP1;ratioP1;P2;durP2;ratioP2
9960;SDS011;5021;51.506;11.320;2023-07-31T00:02:24;3.40;;;2.20;;
9960;SDS011;5021;51.506;11.320;2023-07-31T00:04:50;4.67;;;2.30;;
9960;SDS011;5021;51.506;11.320;2023-07-31T00:07:16;2.47;;;1.80;;
9960;SDS011;5021;51.506;11.320;2023-07-31T00:09:41;5.23;;;2.20;;
9960;SDS011;5021;51.506;11.320;2023-07-31T00:12:08;3.73;;;2.30;;
9960;SDS011;5021;51.506;11.320;2023-07-31T00:14:34;4.43;;;2.40;;
9960;SDS011;5021;51.506;11.320;2023-07-31T00:16:59;5.23;;;2.20;;
9960;SDS011;5021;51.506;11.320;2023-07-31T00:19:25;5.20;;;2.30;;
9960;SDS011;5021;51.506;11.320;2023-07-31T00:21:51;4.37;;;2.50;;
9960;SDS011;5021;51.506;11.320;2023-07-31T00:24:17;3.57;;;2.10;;
9960;SDS011;5021;51.506;11.320;2023-07-31T00:26:43;4.53;;;2.17;;
9960;SDS011;5021;51.506;11.320;2023-07-31T00:29:09;5.40;;;2.40;;
9960;SDS011;5021;51.506;11.320;2023-07-31T00:31:35;5.97;;;2.63;;
9960;SDS011;5021;51.506;11.320;2023-07-31T00:34:01;5.57;;;2.70;;
9960;SDS011;5021;51.506;11.320;2023-07-31T00:36:27;4.00;;;2.20;;
9960;SDS011;5021;51.506;11.320;2023-07-31T00:38:53;3.93;;;2.40;;
9960;SDS011;5021;51.506;11.320;2023-07-31T00:41:19;3.23;;;2.20;;
9960;SDS011;5021;51.506;11.320;2023-07-31T00:43:45;6.00;;;2.50;;
9960;SDS011;5021;51.506;11.320;2023-07-31T00:46:11;5.23;;;2.40;;
9960;SDS011;5021;51.506;11.320;2023-07-31T00:48:37;6.13;;;2.30;;
9960;SDS011;5021;51.506;11.320;2023-07-31T00:51:03;2.70;;;1.93;;
9960;SDS011;5021;51.506;11.320;2023-07-31T00:53:29;3.97;;;2.20;;
9960;SDS011;5021;51.506;11.320;2023-07-31T00:55:55;3.60;;;2.33;;
9960;SDS011;5021;51.506;11.320;2023-07-31T00:58:21;5.93;;;2.30;;
9960;SDS011;5021;51.506;11.320;2023-07-31T01:00:47;2.77;;;1.70;;
9960;SDS011;5021;51.506;11.320;2023-07-31T01:03:15;4.60;;;2.07;;
9960;SDS011;5021;51.506;11.320;2023-07-31T01:05:56;3.10;;;1.63;;
9960;SDS011;5021;51.506;11.320;2023-07-31T01:08:41;2.50;;;1.70;;
9960;SDS011;5021;51.506;11.320;2023-07-31T01:11:14;3.23;;;1.87;;
9960;SDS011;5021;51.506;11.320;2023-07-31T01:13:42;2.83;;;1.87;;
9960;SDS011;5021;51.506;11.320;2023-07-31T01:16:08;4.73;;;2.20;;
9960;SDS011;5021;51.506;11.320;2023-07-31T01:18:33;4.17;;;1.87;;
9960;SDS011;5021;51.506;11.320;2023-07-31T01:21:03;2.90;;;1.80;;
9960;SDS011;5021;51.506;11.320;2023-07-31T01:23:36;5.00;;;2.00;;
9960;SDS011;5021;51.506;11.320;2023-07-31T01:26:11;4.90;;;2.10;;
9960;SDS011;5021;51.506;11.320;2023-07-31T01:28:40;3.03;;;2.00;;
9960;SDS011;5021;51.506;11.320;2023-07-31T01:31:09;3.43;;;2.20;;
9960;SDS011;5021;51.506;11.320;2023-07-31T01:33:36;3.13;;;2.00;;
9960;SDS011;5021;51.506;11.320;2023-07-31T01:36:02;2.93;;;2.17;;
9960;SDS011;5021;51.506;11.320;2023-07-31T01:38:28;4.67;;;2.20;;
9960;SDS011;5021;51.506;11.320;2023-07-31T01:40:54;3.10;;;1.97;;
9960;SDS011;5021;51.506;11.320;2023-07-31T01:43:20;3.10;;;2.20;;
9960;SDS011;5021;51.506;11.320;2023-07-31T01:45:46;4.33;;;2.23;;
9960;SDS011;5021;51.506;11.320;2023-07-31T01:48:12;2.73;;;2.23;;
9960;SDS011;5021;51.506;11.320;2023-07-31T01:50:38;4.30;;;2.50;;
9960;SDS011;5021;51.506;11.320;2023-07-31T01:53:04;3.33;;;2.10;;
9960;SDS011;5021;51.506;11.320;2023-07-31T01:55:30;3.17;;;2.40;;
9960;SDS011;5021;51.506;11.320;2023-07-31T01:57:55;3.77;;;2.23;;
9960;SDS011;5021;51.506;11.320;2023-07-31T02:00:21;3.53;;;2.13;;
9960;SDS011;5021;51.506;11.320;2023-07-31T02:02:47;3.30;;;2.07;;
9960;SDS011;5021;51.506;11.320;2023-07-31T02:05:13;4.27;;;2.13;;
9960;SDS011;5021;51.506;11.320;2023-07-31T02:07:39;3.53;;;2.13;;
9960;SDS011;5021;51.506;11.320;2023-07-31T02:10:05;5.07;;;2.40;;
9960;SDS011;5021;51.506;11.320;2023-07-31T02:12:31;3.97;;;2.10;;
9960;SDS011;5021;51.506;11.320;2023-07-31T02:14:58;3.10;;;2.13;;
9960;SDS011;5021;51.506;11.320;2023-07-31T02:17:24;3.00;;;2.33;;
9960;SDS011;5021;51.506;11.320;2023-07-31T02:19:50;4.83;;;2.50;;
9960;SDS011;5021;51.506;11.320;2023-07-31T02:22:16;3.93;;;2.47;;
9960;SDS011;5021;51.506;11.320;2023-07-31T02:24:43;5.80;;;2.53;;
9960;SDS011;5021;51.506;11.320;2023-07-31T02:27:09;4.37;;;2.67;;
9960;SDS011;5021;51.506;11.320;2023-07-31T02:29:34;3.97;;;2.30;;
9960;SDS011;5021;51.506;11.320;2023-07-31T02:32:00;4.50;;;2.30;;
9960;SDS011;5021;51.506;11.320;2023-07-31T02:34:26;2.97;;;2.20;;
9960;SDS011;5021;51.506;11.320;2023-07-31T02:36:52;4.17;;;2.33;;
9960;SDS011;5021;51.506;11.320;2023-07-31T02:39:18;4.30;;;2.50;;
9960;SDS011;5021;51.506;11.320;2023-07-31T02:41:44;4.20;;;2.57;;
9960;SDS011;5021;51.506;11.320;2023-07-31T02:44:10;3.30;;;2.73;;
9960;SDS011;5021;51.506;11.320;2023-07-31T02:46:39;3.77;;;2.40;;
9960;SDS011;5021;51.506;11.320;2023-07-31T02:49:05;7.03;;;2.50;;
9960;SDS011;5021;51.506;11.320;2023-07-31T02:51:31;2.93;;;2.40;;
9960;SDS011;5021;51.506;11.320;2023-07-31T02:53:56;5.23;;;2.73;;
9960;SDS011;5021;51.506;11.320;2023-07-31T02:56:22;3.00;;;2.30;;
9960;SDS011;5021;51.506;11.320;2023-07-31T02:58:48;4.07;;;2.40;;
9960;SDS011;5021;51.506;11.320;2023-07-31T03:01:14;4.30;;;2.53;;
9960;SDS011;5021;51.506;11.320;2023-07-31T03:03:41;5.10;;;2.40;;
9960;SDS011;5021;51.506;11.320;2023-07-31T03:06:07;3.50;;;2.37;;
9960;SDS011;5021;51.506;11.320;2023-07-31T03:08:33;4.10;;;2.50;;
9960;SDS011;5021;51.506;11.320;2023-07-31T03:10:59;3.37;;;2.30;;
9960;SDS011;5021;51.506;11.320;2023-07-31T03:13:25;5.97;;;2.60;;
9960;SDS011;5021;51.506;11.320;2023-07-31T03:15:51;5.37;;;2.60;;
9960;SDS011;5021;51.506;11.320;2023-07-31T03:18:17;5.13;;;2.33;;
9960;SDS011;5021;51.506;11.320;2023-07-31T03:20:43;3.03;;;2.50;;
9960;SDS011;5021;51.506;11.320;2023-07-31T03:23:09;4.20;;;2.40;;
9960;SDS011;5021;51.506;11.320;2023-07-31T03:25:35;5.43;;;2.70;;
9960;SDS011;5021;51.506;11.320;2023-07-31T03:28:01;7.10;;;2.90;;
9960;SDS011;5021;51.506;11.320;2023-07-31T03:30:27;3.97;;;2.40;;
9960;SDS011;5021;51.506;11.320;2023-07-31T03:32:53;4.87;;;2.40;;
9960;SDS011;5021;51.506;11.320;2023-07-31T03:35:19;3.50;;;2.73;;
9960;SDS011;5021;51.506;11.320;2023-07-31T03:37:44;2.87;;;2.37;;
9960;SDS011;5021;51.506;11.320;2023-07-31T03:40:11;5.63;;;2.50;;
9960;SDS011;5021;51.506;11.320;2023-07-31T03:42:37;2.70;;;2.40;;
9960;SDS011;5021;51.506;11.320;2023-07-31T03:45:03;6.17;;;2.90;;
9960;SDS011;5021;51.506;11.320;2023-07-31T03:47:29;4.00;;;2.63;;
9960;SDS011;5021;51.506;11.320;2023-07-31T03:49:55;6.23;;;2.67;;
9960;SDS011;5021;51.506;11.320;2023-07-31T03:52:20;4.70;;;2.80;;
9960;SDS011;5021;51.506;11.320;2023-07-31T03:54:46;4.90;;;2.67;;
9960;SDS011;5021;51.506;11.320;2023-07-31T03:57:12;3.80;;;2.40;;
9960;SDS011;5021;51.506;11.320;2023-07-31T03:59:38;5.90;;;2.50;;
9960;SDS011;5021;51.506;11.320;2023-07-31T04:02:04;6.03;;;2.47;;
9960;SDS011;5021;51.506;11.320;2023-07-31T04:04:30;4.10;;;2.90;;
9960;SDS011;5021;51.506;11.320;2023-07-31T04:06:56;5.00;;;2.70;;
9960;SDS011;5021;51.506;11.320;2023-07-31T04:09:22;4.73;;;2.60;;
9960;SDS011;5021;51.506;11.320;2023-07-31T04:11:48;4.17;;;2.77;;
9960;SDS011;5021;51.506;11.320;2023-07-31T04:14:14;4.63;;;2.70;;
9960;SDS011;5021;51.506;11.320;2023-07-31T04:16:40;6.67;;;2.50;;
9960;SDS011;5021;51.506;11.320;2023-07-31T04:19:06;5.37;;;3.07;;
9960;SDS011;5021;51.506;11.320;2023-07-31T04:21:32;3.67;;;2.70;;
9960;SDS011;5021;51.506;11.320;2023-07-31T04:23:58;10.70;;;3.30;;
9960;SDS011;5021;51.506;11.320;2023-07-31T04:26:24;4.73;;;2.97;;
9960;SDS011;5021;51.506;11.320;2023-07-31T04:28:49;5.23;;;2.93;;
9960;SDS011;5021;51.506;11.320;2023-07-31T04:31:15;5.87;;;3.03;;
9960;SDS011;5021;51.506;11.320;2023-07-31T04:33:41;4.30;;;2.83;;
9960;SDS011;5021;51.506;11.320;2023-07-31T04:36:07;4.60;;;3.10;;
9960;SDS011;5021;51.506;11.320;2023-07-31T04:38:33;4.33;;;2.73;;
9960;SDS011;5021;51.506;11.320;2023-07-31T04:40:59;4.60;;;3.00;;
9960;SDS011;5021;51.506;11.320;2023-07-31T04:43:25;6.07;;;3.30;;
9960;SDS011;5021;51.506;11.320;2023-07-31T04:45:51;5.83;;;2.70;;
9960;SDS011;5021;51.506;11.320;2023-07-31T04:48:19;5.63;;;2.93;;
9960;SDS011;5021;51.506;11.320;2023-07-31T04:50:44;5.23;;;2.83;;
9960;SDS011;5021;51.506;11.320;2023-07-31T04:53:10;5.77;;;2.80;;
9960;SDS011;5021;51.506;11.320;2023-07-31T04:55:36;4.70;;;3.13;;
9960;SDS011;5021;51.506;11.320;2023-07-31T04:58:02;6.73;;;3.07;;
9960;SDS011;5021;51.506;11.320;2023-07-31T05:00:28;5.13;;;3.43;;
9960;SDS011;5021;51.506;11.320;2023-07-31T05:02:54;4.07;;;2.97;;
9960;SDS011;5021;51.506;11.320;2023-07-31T05:05:20;4.17;;;2.60;;
9960;SDS011;5021;51.506;11.320;2023-07-31T05:07:46;5.10;;;3.03;;
9960;SDS011;5021;51.506;11.320;2023-07-31T05:10:12;7.10;;;3.60;;
9960;SDS011;5021;51.506;11.320;2023-07-31T05:12:38;5.07;;;2.73;;
9960;SDS011;5021;51.506;11.320;2023-07-31T05:15:04;6.37;;;3.47;;
9960;SDS011;5021;51.506;11.320;2023-07-31T05:17:30;4.20;;;2.90;;
9960;SDS011;5021;51.506;11.320;2023-07-31T05:19:56;3.43;;;2.93;;
9960;SDS011;5021;51.506;11.320;2023-07-31T05:22:23;4.93;;;3.00;;
9960;SDS011;5021;51.506;11.320;2023-07-31T05:24:49;4.73;;;3.00;;
9960;SDS011;5021;51.506;11.320;2023-07-31T05:27:15;5.80;;;3.17;;
9960;SDS011;5021;51.506;11.320;2023-07-31T05:29:43;5.20;;;2.80;;
9960;SDS011;5021;51.506;11.320;2023-07-31T05:32:09;4.60;;;2.73;;
9960;SDS011;5021;51.506;11.320;2023-07-31T05:34:35;5.67;;;3.33;;
9960;SDS011;5021;51.506;11.320;2023-07-31T05:37:01;4.60;;;3.10;;
9960;SDS011;5021;51.506;11.320;2023-07-31T05:39:27;3.70;;;2.53;;
9960;SDS011;5021;51.506;11.320;2023-07-31T05:41:53;5.80;;;2.97;;
9960;SDS011;5021;51.506;11.320;2023-07-31T05:44:19;4.80;;;2.53;;
9960;SDS011;5021;51.506;11.320;2023-07-31T05:46:45;6.57;;;3.00;;
9960;SDS011;5021;51.506;11.320;2023-07-31T05:49:11;6.77;;;3.20;;
9960;SDS011;5021;51.506;11.320;2023-07-31T05:51:36;4.50;;;2.70;;
9960;SDS011;5021;51.506;11.320;2023-07-31T05:54:02;5.10;;;2.53;;
9960;SDS011;5021;51.506;11.320;2023-07-31T05:56:28;5.63;;;2.87;;
9960;SDS011;5021;51.506;11.320;2023-07-31T05:58:54;4.77;;;2.50;;
9960;SDS011;5021;51.506;11.320;2023-07-31T06:01:22;5.30;;;3.20;;
9960;SDS011;5021;51.506;11.320;2023-07-31T06:03:47;4.50;;;2.70;;
9960;SDS011;5021;51.506;11.320;2023-07-31T06:06:13;3.57;;;2.53;;
9960;SDS011;5021;51.506;11.320;2023-07-31T06:08:39;4.07;;;3.00;;
9960;SDS011;5021;51.506;11.320;2023-07-31T06:11:06;4.70;;;2.70;;
9960;SDS011;5021;51.506;11.320;2023-07-31T06:13:34;4.63;;;2.80;;
9960;SDS011;5021;51.506;11.320;2023-07-31T06:16:00;3.57;;;2.60;;
9960;SDS011;5021;51.506;11.320;2023-07-31T06:18:30;7.07;;;2.97;;
9960;SDS011;5021;51.506;11.320;2023-07-31T06:20:55;4.07;;;2.90;;
9960;SDS011;5021;51.506;11.320;2023-07-31T06:23:21;3.00;;;2.40;;
9960;SDS011;5021;51.506;11.320;2023-07-31T06:25:47;3.20;;;2.40;;
9960;SDS011;5021;51.506;11.320;2023-07-31T06:28:13;5.00;;;2.83;;
9960;SDS011;5021;51.506;11.320;2023-07-31T06:30:39;3.10;;;2.53;;
9960;SDS011;5021;51.506;11.320;2023-07-31T06:33:05;5.47;;;2.70;;
9960;SDS011;5021;51.506;11.320;2023-07-31T06:35:31;5.43;;;3.07;;
9960;SDS011;5021;51.506;11.320;2023-07-31T06:37:57;5.03;;;3.10;;
9960;SDS011;5021;51.506;11.320;2023-07-31T06:40:23;3.70;;;2.77;;
9960;SDS011;5021;51.506;11.320;2023-07-31T06:42:49;3.60;;;2.43;;
9960;SDS011;5021;51.506;11.320;2023-07-31T06:45:15;5.70;;;3.10;;
9960;SDS011;5021;51.506;11.320;2023-07-31T06:47:41;3.97;;;2.70;;
9960;SDS011;5021;51.506;11.320;2023-07-31T06:50:08;3.33;;;2.60;;
9960;SDS011;5021;51.506;11.320;2023-07-31T06:52:34;6.33;;;3.00;;
9960;SDS011;5021;51.506;11.320;2023-07-31T06:55:00;5.50;;;2.80;;
9960;SDS011;5021;51.506;11.320;2023-07-31T06:57:27;3.67;;;2.80;;
9960;SDS011;5021;51.506;11.320;2023-07-31T06:59:53;6.33;;;2.80;;
9960;SDS011;5021;51.506;11.320;2023-07-31T07:02:19;6.40;;;3.03;;
9960;SDS011;5021;51.506;11.320;2023-07-31T07:04:45;5.00;;;2.83;;
9960;SDS011;5021;51.506;11.320;2023-07-31T07:07:11;5.17;;;2.80;;
9960;SDS011;5021;51.506;11.320;2023-07-31T07:09:37;4.90;;;2.83;;
9960;SDS011;5021;51.506;11.320;2023-07-31T07:12:03;3.97;;;2.63;;
9960;SDS011;5021;51.506;11.320;2023-07-31T07:14:29;6.73;;;3.10;;
9960;SDS011;5021;51.506;11.320;2023-07-31T07:16:55;3.67;;;2.80;;
9960;SDS011;5021;51.506;11.320;2023-07-31T07:19:21;4.97;;;2.70;;
9960;SDS011;5021;51.506;11.320;2023-07-31T07:21:47;4.23;;;2.53;;
9960;SDS011;5021;51.506;11.320;2023-07-31T07:24:13;5.93;;;2.60;;
9960;SDS011;5021;51.506;11.320;2023-07-31T07:26:39;4.17;;;2.47;;
9960;SDS011;5021;51.506;11.320;2023-07-31T07:29:05;4.73;;;2.70;;
9960;SDS011;5021;51.506;11.320;2023-07-31T07:31:32;4.43;;;2.80;;
9960;SDS011;5021;51.506;11.320;2023-07-31T07:33:59;4.87;;;2.70;;
9960;SDS011;5021;51.506;11.320;2023-07-31T07:36:27;3.50;;;2.67;;
9960;SDS011;5021;51.506;11.320;2023-07-31T07:38:53;3.60;;;2.73;;
9960;SDS011;5021;51.506;11.320;2023-07-31T07:41:19;3.67;;;2.90;;
9960;SDS011;5021;51.506;11.320;2023-07-31T07:43:45;6.07;;;3.03;;
9960;SDS011;5021;51.506;11.320;2023-07-31T07:46:11;3.70;;;2.87;;
9960;SDS011;5021;51.506;11.320;2023-07-31T07:48:37;3.37;;;2.63;;
9960;SDS011;5021;51.506;11.320;2023-07-31T07:51:03;4.10;;;2.60;;
9960;SDS011;5021;51.506;11.320;2023-07-31T07:53:28;3.60;;;2.60;;
9960;SDS011;5021;51.506;11.320;2023-07-31T07:55:54;5.10;;;2.87;;
9960;SDS011;5021;51.506;11.320;2023-07-31T07:58:20;3.47;;;2.53;;
9960;SDS011;5021;51.506;11.320;2023-07-31T08:00:52;6.30;;;2.80;;
9960;SDS011;5021;51.506;11.320;2023-07-31T08:03:18;3.80;;;2.67;;
9960;SDS011;5021;51.506;11.320;2023-07-31T08:05:44;5.00;;;2.67;;
9960;SDS011;5021;51.506;11.320;2023-07-31T08:08:16;3.97;;;2.70;;
9960;SDS011;5021;51.506;11.320;2023-07-31T08:10:43;3.37;;;2.67;;
9960;SDS011;5021;51.506;11.320;2023-07-31T08:13:10;2.63;;;2.23;;
9960;SDS011;5021;51.506;11.320;2023-07-31T08:15:36;3.93;;;3.03;;
9960;SDS011;5021;51.506;11.320;2023-07-31T08:18:01;4.50;;;2.70;;
9960;SDS011;5021;51.506;11.320;2023-07-31T08:20:27;4.20;;;2.70;;
9960;SDS011;5021;51.506;11.320;2023-07-31T08:22:53;3.63;;;2.50;;
9960;SDS011;5021;51.506;11.320;2023-07-31T08:25:20;6.83;;;2.60;;
9960;SDS011;5021;51.506;11.320;2023-07-31T08:27:46;4.47;;;2.50;;
9960;SDS011;5021;51.506;11.320;2023-07-31T08:30:12;5.37;;;2.57;;
9960;SDS011;5021;51.506;11.320;2023-07-31T08:32:38;2.97;;;2.60;;
9960;SDS011;5021;51.506;11.320;2023-07-31T08:35:04;4.13;;;2.40;;
9960;SDS011;5021;51.506;11.320;2023-07-31T08:37:29;3.27;;;2.70;;
9960;SDS011;5021;51.506;11.320;2023-07-31T08:39:55;2.77;;;2.30;;
9960;SDS011;5021;51.506;11.320;2023-07-31T08:42:23;4.20;;;2.97;;
9960;SDS011;5021;51.506;11.320;2023-07-31T08:44:50;2.63;;;2.43;;
9960;SDS011;5021;51.506;11.320;2023-07-31T08:47:16;4.07;;;2.37;;
9960;SDS011;5021;51.506;11.320;2023-07-31T08:49:42;4.77;;;3.17;;
9960;SDS011;5021;51.506;11.320;2023-07-31T08:52:08;4.33;;;3.00;;
9960;SDS011;5021;51.506;11.320;2023-07-31T08:54:34;4.83;;;2.90;;
9960;SDS011;5021;51.506;11.320;2023-07-31T08:57:00;3.77;;;2.93;;
9960;SDS011;5021;51.506;11.320;2023-07-31T08:59:27;4.37;;;2.87;;
9960;SDS011;5021;51.506;11.320;2023-07-31T09:01:54;4.70;;;2.63;;
9960;SDS011;5021;51.506;11.320;2023-07-31T09:04:21;4.83;;;2.80;;
9960;SDS011;5021;51.506;11.320;2023-07-31T09:06:48;4.87;;;2.73;;
9960;SDS011;5021;51.506;11.320;2023-07-31T09:09:14;4.23;;;2.53;;
9960;SDS011;5021;51.506;11.320;2023-07-31T09:11:40;4.53;;;2.80;;
9960;SDS011;5021;51.506;11.320;2023-07-31T09:14:07;4.43;;;2.93;;
9960;SDS011;5021;51.506;11.320;2023-07-31T09:16:34;3.67;;;2.60;;
9960;SDS011;5021;51.506;11.320;2023-07-31T09:19:00;4.70;;;2.60;;
9960;SDS011;5021;51.506;11.320;2023-07-31T09:21:30;3.67;;;2.80;;
9960;SDS011;5021;51.506;11.320;2023-07-31T09:23:56;4.70;;;2.93;;
9960;SDS011;5021;51.506;11.320;2023-07-31T09:26:29;5.80;;;3.00;;
9960;SDS011;5021;51.506;11.320;2023-07-31T09:28:55;4.07;;;2.70;;
9960;SDS011;5021;51.506;11.320;2023-07-31T09:31:31;3.83;;;2.77;;
9960;SDS011;5021;51.506;11.320;2023-07-31T09:33:58;4.33;;;2.73;;
9960;SDS011;5021;51.506;11.320;2023-07-31T09:36:25;4.80;;;2.70;;
9960;SDS011;5021;51.506;11.320;2023-07-31T09:38:51;5.10;;;3.17;;
9960;SDS011;5021;51.506;11.320;2023-07-31T09:41:17;3.83;;;2.73;;
9960;SDS011;5021;51.506;11.320;2023-07-31T09:43:45;5.27;;;3.30;;
9960;SDS011;5021;51.506;11.320;2023-07-31T09:46:18;4.17;;;2.60;;
9960;SDS011;5021;51.506;11.320;2023-07-31T09:48:46;3.67;;;2.73;;
9960;SDS011;5021;51.506;11.320;2023-07-31T09:51:12;3.00;;;2.63;;
9960;SDS011;5021;51.506;11.320;2023-07-31T09:53:37;5.47;;;3.10;;
9960;SDS011;5021;51.506;11.320;2023-07-31T09:56:03;4.87;;;2.93;;
9960;SDS011;5021;51.506;11.320;2023-07-31T09:58:30;4.47;;;2.60;;
9960;SDS011;5021;51.506;11.320;2023-07-31T10:01:00;5.00;;;3.03;;
9960;SDS011;5021;51.506;11.320;2023-07-31T10:03:27;3.73;;;2.80;;
9960;SDS011;5021;51.506;11.320;2023-07-31T10:05:55;3.20;;;2.53;;
9960;SDS011;5021;51.506;11.320;2023-07-31T10:08:21;4.83;;;2.83;;
9960;SDS011;5021;51.506;11.320;2023-07-31T10:10:49;4.33;;;3.00;;
9960;SDS011;5021;51.506;11.320;2023-07-31T10:13:15;4.00;;;2.93;;
9960;SDS011;5021;51.506;11.320;2023-07-31T10:15:42;4.67;;;3.00;;
9960;SDS011;5021;51.506;11.320;2023-07-31T10:18:08;5.90;;;3.00;;
9960;SDS011;5021;51.506;11.320;2023-07-31T10:20:34;5.77;;;2.97;;
9960;SDS011;5021;51.506;11.320;2023-07-31T10:23:01;4.00;;;3.00;;
9960;SDS011;5021;51.506;11.320;2023-07-31T10:25:27;4.90;;;3.03;;
9960;SDS011;5021;51.506;11.320;2023-07-31T10:27:53;5.50;;;3.37;;
9960;SDS011;5021;51.506;11.320;2023-07-31T10:30:24;5.93;;;3.13;;
9960;SDS011;5021;51.506;11.320;2023-07-31T10:32:52;6.07;;;2.97;;
9960;SDS011;5021;51.506;11.320;2023-07-31T10:35:19;4.03;;;3.13;;
9960;SDS011;5021;51.506;11.320;2023-07-31T10:37:47;5.10;;;3.13;;
9960;SDS011;5021;51.506;11.320;2023-07-31T10:40:23;3.60;;;2.80;;
9960;SDS011;5021;51.506;11.320;2023-07-31T10:42:52;3.30;;;2.90;;
9960;SDS011;5021;51.506;11.320;2023-07-31T10:45:25;6.70;;;3.07;;
9960;SDS011;5021;51.506;11.320;2023-07-31T10:47:57;5.57;;;3.40;;
9960;SDS011;5021;51.506;11.320;2023-07-31T10:50:25;5.07;;;3.00;;
9960;SDS011;5021;51.506;11.320;2023-07-31T10:52:52;4.47;;;3.13;;
9960;SDS011;5021;51.506;11.320;2023-07-31T10:55:28;5.73;;;3.07;;
9960;SDS011;5021;51.506;11.320;2023-07-31T10:57:55;4.33;;;2.97;;
9960;SDS011;5021;51.506;11.320;2023-07-31T11:02:57;5.20;;;3.13;;
9960;SDS011;5021;51.506;11.320;2023-07-31T11:08:23;4.77;;;3.00;;
9960;SDS011;5021;51.506;11.320;2023-07-31T11:10:50;7.13;;;3.30;;
9960;SDS011;5021;51.506;11.320;2023-07-31T11:13:16;5.27;;;3.10;;
9960;SDS011;5021;51.506;11.320;2023-07-31T11:15:42;4.20;;;3.07;;
9960;SDS011;5021;51.506;11.320;2023-07-31T11:18:08;3.93;;;2.83;;
9960;SDS011;5021;51.506;11.320;2023-07-31T11:20:36;3.57;;;2.83;;
9960;SDS011;5021;51.506;11.320;2023-07-31T11:23:03;3.97;;;3.03;;
9960;SDS011;5021;51.506;11.320;2023-07-31T11:25:32;4.07;;;3.00;;
9960;SDS011;5021;51.506;11.320;2023-07-31T11:28:02;6.33;;;3.10;;
9960;SDS011;5021;51.506;11.320;2023-07-31T11:30:28;4.87;;;3.30;;
9960;SDS011;5021;51.506;11.320;2023-07-31T11:32:55;4.07;;;2.90;;
9960;SDS011;5021;51.506;11.320;2023-07-31T11:35:21;5.50;;;3.27;;
9960;SDS011;5021;51.506;11.320;2023-07-31T11:37:47;5.00;;;3.47;;
9960;SDS011;5021;51.506;11.320;2023-07-31T11:40:13;3.47;;;2.90;;
9960;SDS011;5021;51.506;11.320;2023-07-31T11:42:40;4.50;;;3.10;;
9960;SDS011;5021;51.506;11.320;2023-07-31T11:45:06;5.53;;;3.43;;
9960;SDS011;5021;51.506;11.320;2023-07-31T11:47:32;6.00;;;3.53;;
9960;SDS011;5021;51.506;11.320;2023-07-31T11:50:02;3.77;;;3.07;;
9960;SDS011;5021;51.506;11.320;2023-07-31T11:52:29;5.53;;;3.40;;
9960;SDS011;5021;51.506;11.320;2023-07-31T11:54:56;4.03;;;3.00;;
9960;SDS011;5021;51.506;11.320;2023-07-31T11:57:23;5.90;;;3.40;;
9960;SDS011;5021;51.506;11.320;2023-07-31T11:59:50;6.00;;;3.03;;
9960;SDS011;5021;51.506;11.320;2023-07-31T12:02:17;3.90;;;3.00;;
9960;SDS011;5021;51.506;11.320;2023-07-31T12:04:45;4.47;;;3.20;;
9960;SDS011;5021;51.506;11.320;2023-07-31T12:07:12;6.03;;;2.83;;
9960;SDS011;5021;51.506;11.320;2023-07-31T12:09:38;6.37;;;3.20;;
9960;SDS011;5021;51.506;11.320;2023-07-31T12:12:07;5.53;;;3.53;;
9960;SDS011;5021;51.506;11.320;2023-07-31T12:14:34;6.07;;;3.30;;
9960;SDS011;5021;51.506;11.320;2023-07-31T12:17:01;5.33;;;3.37;;
9960;SDS011;5021;51.506;11.320;2023-07-31T12:19:29;3.73;;;2.90;;
9960;SDS011;5021;51.506;11.320;2023-07-31T12:21:56;6.07;;;3.10;;
9960;SDS011;5021;51.506;11.320;2023-07-31T12:24:22;4.43;;;3.10;;
9960;SDS011;5021;51.506;11.320;2023-07-31T12:26:48;3.83;;;2.80;;
9960;SDS011;5021;51.506;11.320;2023-07-31T12:29:14;4.03;;;2.97;;
9960;SDS011;5021;51.506;11.320;2023-07-31T12:31:41;5.60;;;3.23;;
9960;SDS011;5021;51.506;11.320;2023-07-31T12:34:17;4.73;;;3.03;;
9960;SDS011;5021;51.506;11.320;2023-07-31T12:36:43;5.50;;;3.33;;
9960;SDS011;5021;51.506;11.320;2023-07-31T12:39:09;5.53;;;3.30;;
9960;SDS011;5021;51.506;11.320;2023-07-31T12:41:36;6.43;;;3.30;;
9960;SDS011;5021;51.506;11.320;2023-07-31T12:44:02;5.77;;;3.13;;
9960;SDS011;5021;51.506;11.320;2023-07-31T12:46:28;5.30;;;3.10;;
9960;SDS011;5021;51.506;11.320;2023-07-31T12:48:54;4.77;;;3.20;;
9960;SDS011;5021;51.506;11.320;2023-07-31T12:51:20;4.13;;;3.10;;
9960;SDS011;5021;51.506;11.320;2023-07-31T12:53:46;3.53;;;2.97;;
9960;SDS011;5021;51.506;11.320;2023-07-31T12:56:12;5.57;;;3.20;;
9960;SDS011;5021;51.506;11.320;2023-07-31T12:58:38;3.30;;;2.97;;
9960;SDS011;5021;51.506;11.320;2023-07-31T13:01:04;5.37;;;3.27;;
9960;SDS011;5021;51.506;11.320;2023-07-31T13:03:31;4.53;;;2.77;;
9960;SDS011;5021;51.506;11.320;2023-07-31T13:05:57;4.27;;;2.50;;
9960;SDS011;5021;51.506;11.320;2023-07-31T13:08:23;3.87;;;2.60;;
9960;SDS011;5021;51.506;11.320;2023-07-31T13:10:49;3.70;;;2.60;;
9960;SDS011;5021;51.506;11.320;2023-07-31T13:13:15;5.13;;;2.60;;
9960;SDS011;5021;51.506;11.320;2023-07-31T13:15:41;2.97;;;2.37;;
9960;SDS011;5021;51.506;11.320;2023-07-31T13:18:07;4.47;;;2.50;;
9960;SDS011;5021;51.506;11.320;2023-07-31T13:20:33;5.43;;;2.70;;
9960;SDS011;5021;51.506;11.320;2023-07-31T13:22:58;4.07;;;2.57;;
9960;SDS011;5021;51.506;11.320;2023-07-31T13:25:24;3.07;;;2.33;;
9960;SDS011;5021;51.506;11.320;2023-07-31T13:27:50;3.47;;;2.17;;
9960;SDS011;5021;51.506;11.320;2023-07-31T13:30:16;3.77;;;2.50;;
9960;SDS011;5021;51.506;11.320;2023-07-31T13:32:42;3.33;;;2.70;;
9960;SDS011;5021;51.506;11.320;2023-07-31T13:35:08;5.73;;;2.70;;
9960;SDS011;5021;51.506;11.320;2023-07-31T13:37:36;4.00;;;2.70;;
9960;SDS011;5021;51.506;11.320;2023-07-31T13:40:02;4.17;;;2.47;;
9960;SDS011;5021;51.506;11.320;2023-07-31T13:42:30;2.83;;;2.10;;
9960;SDS011;5021;51.506;11.320;2023-07-31T13:44:56;4.03;;;2.70;;
9960;SDS011;5021;51.506;11.320;2023-07-31T13:47:21;9.23;;;3.27;;
9960;SDS011;5021;51.506;11.320;2023-07-31T13:49:47;4.07;;;2.50;;
9960;SDS011;5021;51.506;11.320;2023-07-31T13:52:14;3.33;;;2.50;;
9960;SDS011;5021;51.506;11.320;2023-07-31T13:54:40;5.23;;;2.50;;
9960;SDS011;5021;51.506;11.320;2023-07-31T13:57:07;3.43;;;2.30;;
9960;SDS011;5021;51.506;11.320;2023-07-31T13:59:33;3.53;;;2.73;;
9960;SDS011;5021;51.506;11.320;2023-07-31T14:01:59;3.33;;;2.60;;
9960;SDS011;5021;51.506;11.320;2023-07-31T14:04:25;3.30;;;2.53;;
9960;SDS011;5021;51.506;11.320;2023-07-31T14:06:51;3.83;;;2.70;;
9960;SDS011;5021;51.506;11.320;2023-07-31T14:09:17;3.47;;;2.40;;
9960;SDS011;5021;51.506;11.320;2023-07-31T14:11:43;3.00;;;2.67;;
9960;SDS011;5021;51.506;11.320;2023-07-31T14:14:09;3.93;;;2.60;;
9960;SDS011;5021;51.506;11.320;2023-07-31T14:16:36;3.27;;;2.43;;
9960;SDS011;5021;51.506;11.320;2023-07-31T14:19:02;3.23;;;2.30;;
9960;SDS011;5021;51.506;11.320;2023-07-31T14:21:28;4.10;;;2.67;;
9960;SDS011;5021;51.506;11.320;2023-07-31T14:23:53;4.10;;;2.70;;
9960;SDS011;5021;51.506;11.320;2023-07-31T14:26:19;2.50;;;2.30;;
9960;SDS011;5021;51.506;11.320;2023-07-31T14:28:45;3.73;;;2.60;;
9960;SDS011;5021;51.506;11.320;2023-07-31T14:31:11;5.40;;;2.43;;
9960;SDS011;5021;51.506;11.320;2023-07-31T14:33:37;3.73;;;2.67;;
9960;SDS011;5021;51.506;11.320;2023-07-31T14:36:03;3.43;;;3.07;;
9960;SDS011;5021;51.506;11.320;2023-07-31T14:38:29;6.53;;;3.20;;
9960;SDS011;5021;51.506;11.320;2023-07-31T14:40:55;4.03;;;3.17;;
9960;SDS011;5021;51.506;11.320;2023-07-31T14:43:21;4.57;;;3.30;;
9960;SDS011;5021;51.506;11.320;2023-07-31T14:45:47;6.43;;;3.13;;
9960;SDS011;5021;51.506;11.320;2023-07-31T14:48:14;4.30;;;3.00;;
9960;SDS011;5021;51.506;11.320;2023-07-31T14:50:40;5.17;;;3.13;;
9960;SDS011;5021;51.506;11.320;2023-07-31T14:53:06;3.83;;;2.87;;
9960;SDS011;5021;51.506;11.320;2023-07-31T14:55:32;3.73;;;3.00;;
9960;SDS011;5021;51.506;11.320;2023-07-31T14:57:59;4.90;;;3.00;;
9960;SDS011;5021;51.506;11.320;2023-07-31T15:00:25;5.77;;;3.40;;
9960;SDS011;5021;51.506;11.320;2023-07-31T15:02:51;5.47;;;3.43;;